Rehoboth Beach DE USA current weather conditions

sailwx.info

Wind from 038 at 1 knots gusting 2

Air temperature 24.2° C
Dewpoint 22.7° C

Last reported at 2020-Aug-12 22:05 UTC.
Time now 2020-Aug-12 22:59 UTC

Location: N 38°43' W 075°05'.
View on Google Maps.

See reports from other nearby stations

  
Tides and Currents Weather Stations Pressure Air Temp Water Temp Dewpoint Dewpoint Depression Visibility Wind Speed Wind Dir Waves Ship Positions
date/time (UTC)wind fromknots sea level pressurealtimeterstation pressurevisibilityair tempwater tempwave heightnotes
2020-Aug-12 22:05 038 1 gusting 2 24.2
2020-Aug-12 22:00 037 1 gusting 2 24.2
2020-Aug-12 21:55 029 1 gusting 2 24.2
2020-Aug-12 21:50 058 2 gusting 3 24.4
2020-Aug-12 21:45 032 2 gusting 3 24.6
2020-Aug-12 21:40 023 2 gusting 4 24.7
2020-Aug-12 21:35 290 1 gusting 4 24.6
2020-Aug-12 21:30 293 3 gusting 7 24.6
2020-Aug-12 21:25 339 2 gusting 5 24.5
2020-Aug-12 21:20 014 2 gusting 5 24.5
2020-Aug-12 21:15 020 5 gusting 7 24.9
2020-Aug-12 21:10 030 2 gusting 7 25.2
2020-Aug-12 21:05 280 1 gusting 4 25.2
2020-Aug-12 21:00 273 2 gusting 7 25.3
2020-Aug-12 20:55 319 3 gusting 7 25.5
2020-Aug-12 20:50 359 3 gusting 7 25.1
2020-Aug-12 20:45 018 5 gusting 11 24.8
2020-Aug-12 20:40 157 2 gusting 4 24.9
2020-Aug-12 20:35 162 4 gusting 6 24.9
2020-Aug-12 20:30 160 5 gusting 7 24.9
2020-Aug-12 20:25 160 5 gusting 8 25.0
2020-Aug-12 20:20 163 5 gusting 8 25.1
2020-Aug-12 20:15 164 5 gusting 9 25.1
2020-Aug-12 20:10 160 6 gusting 9 25.5
2020-Aug-12 20:05 162 5 gusting 8 25.7
2020-Aug-12 20:00 162 6 gusting 9 25.9
2020-Aug-12 19:55 166 6 gusting 9 26.2
2020-Aug-12 19:50 164 6 gusting 10 26.3
2020-Aug-12 19:45 165 9 gusting 14 26.8
2020-Aug-12 19:40 170 9 gusting 13 27.4
2020-Aug-12 19:35 165 8 gusting 12 27.2
2020-Aug-12 19:30 164 9 gusting 14 27.2
2020-Aug-12 19:25 162 8 gusting 14 27.3
2020-Aug-12 19:20 164 8 gusting 13 27.2
2020-Aug-12 19:15 164 8 gusting 13 27.4
2020-Aug-12 19:10 164 8 gusting 12 27.2
2020-Aug-12 19:05 165 9 gusting 12 27.2
2020-Aug-12 19:00 164 8 gusting 12 27.4
2020-Aug-12 18:55 165 8 gusting 13 27.6
2020-Aug-12 18:50 163 8 gusting 12 27.5
2020-Aug-12 18:45 162 7 gusting 11 27.4
2020-Aug-12 18:40 161 8 gusting 12 27.3
2020-Aug-12 18:35 157 9 gusting 11 27.3
2020-Aug-12 18:30 159 8 gusting 11 27.5
2020-Aug-12 18:25 160 9 gusting 12 27.3
2020-Aug-12 18:20 161 9 gusting 11 27.2
2020-Aug-12 18:15 159 8 gusting 12 27.6
2020-Aug-12 18:10 160 8 gusting 13 27.1
2020-Aug-12 18:05 161 9 gusting 12 27.1
2020-Aug-12 18:00 159 8 gusting 12 27.1
2020-Aug-12 17:55 160 8 gusting 11 27.1
2020-Aug-12 17:50 163 8 gusting 11 27.1
2020-Aug-12 17:45 159 8 gusting 12 27.2
2020-Aug-12 17:40 161 7 gusting 10 27.2
2020-Aug-12 17:35 162 8 gusting 11 27.2
2020-Aug-12 17:30 160 8 gusting 12 27.3
2020-Aug-12 17:25 161 8 gusting 11 27.1
2020-Aug-12 17:20 159 8 gusting 12 27.3
2020-Aug-12 17:15 164 7 gusting 13 27.6
2020-Aug-12 17:10 162 7 gusting 11 27.6
2020-Aug-12 17:05 166 8 gusting 12 27.4
2020-Aug-12 17:00 161 8 gusting 12 27.3
2020-Aug-12 16:55 162 7 gusting 12 27.1
2020-Aug-12 16:50 164 7 gusting 11 27.1
2020-Aug-12 16:45 160 8 gusting 11 26.8
2020-Aug-12 16:40 159 7 gusting 10 26.6
2020-Aug-12 16:35 157 7 gusting 10 26.2
2020-Aug-12 16:30 154 6 gusting 8 26.1
2020-Aug-12 16:25 154 7 gusting 9 26.1
2020-Aug-12 16:20 156 7 gusting 10 26.5
2020-Aug-12 16:15 158 7 gusting 9 26.4
2020-Aug-12 16:10 157 7 gusting 11 26.4
2020-Aug-12 16:05 154 6 gusting 9 26.4
2020-Aug-12 16:00 157 5 gusting 8 26.3
2020-Aug-12 15:55 154 6 gusting 8 26.1
2020-Aug-12 15:50 155 6 gusting 8 26.0
2020-Aug-12 15:45 156 6 gusting 8 26.0
2020-Aug-12 15:40 154 6 gusting 8 26.0
2020-Aug-12 15:35 157 6 gusting 10 26.2
2020-Aug-12 15:30 157 6 gusting 9 26.2
2020-Aug-12 15:25 157 6 gusting 9 26.3
2020-Aug-12 15:20 155 6 gusting 8 26.1
2020-Aug-12 15:15 156 6 gusting 9 25.8
2020-Aug-12 15:10 156 7 gusting 9 26.0
2020-Aug-12 15:05 156 7 gusting 9 26.1
2020-Aug-12 15:00 159 6 gusting 9 26.1
2020-Aug-12 14:55 154 6 gusting 8 26.1
2020-Aug-12 14:50 155 6 gusting 8 26.4
2020-Aug-12 14:45 155 5 gusting 7 26.5
2020-Aug-12 14:40 154 5 gusting 7 26.4
2020-Aug-12 14:35 157 6 gusting 9 26.1
2020-Aug-12 14:30 159 6 gusting 9 25.9
2020-Aug-12 14:25 161 6 gusting 10 25.9
2020-Aug-12 14:20 156 6 gusting 9 25.4
2020-Aug-12 14:15 156 6 gusting 8 25.6
2020-Aug-12 14:10 155 5 gusting 8 25.8
2020-Aug-12 14:05 155 4 gusting 6 26.0
2020-Aug-12 14:00 156 4 gusting 7 26.1
2020-Aug-12 13:55 157 4 gusting 6 25.8
2020-Aug-12 13:50 155 4 gusting 6 25.7
2020-Aug-12 13:45 158 4 gusting 6 25.6
2020-Aug-12 13:40 160 5 gusting 7 25.3
2020-Aug-12 13:35 155 4 gusting 6 25.4
2020-Aug-12 13:30 161 4 gusting 6 25.7
2020-Aug-12 13:25 158 4 gusting 5 25.8
2020-Aug-12 13:20 155 3 gusting 6 26.8
2020-Aug-12 13:15 126 1 gusting 4 26.6
2020-Aug-12 13:10 165 4 gusting 6 25.8
2020-Aug-12 13:05 171 3 gusting 5 27.1
2020-Aug-12 13:00 242 2 gusting 5 27.7
2020-Aug-12 12:55 158 3 gusting 5 26.5
2020-Aug-12 12:50 168 3 gusting 5 27.4
2020-Aug-12 12:45 355 0 gusting 3 27.8
2020-Aug-12 12:40 306 1 gusting 3 27.5
2020-Aug-12 12:35 153 1 gusting 3 27.4
2020-Aug-12 12:30 268 0 gusting 2 27.4
2020-Aug-12 12:25 276 1 gusting 3 26.7
2020-Aug-12 12:20 176 2 gusting 4 25.7
2020-Aug-12 12:15 162 3 gusting 5 26.5
2020-Aug-12 12:10 266 1 gusting 3 27.0
2020-Aug-12 12:05 252 2 gusting 6 27.0
2020-Aug-12 12:00 269 2 gusting 4 27.0
2020-Aug-12 11:55 260 1 gusting 5 26.8
2020-Aug-12 11:50 256 2 gusting 6 26.6
2020-Aug-12 11:45 251 2 gusting 5 26.4
2020-Aug-12 11:40 250 2 gusting 4 26.3
2020-Aug-12 11:35 261 2 gusting 5 26.1
2020-Aug-12 11:30 266 2 gusting 4 26.1
2020-Aug-12 11:25 260 2 gusting 5 26.0
2020-Aug-12 11:20 259 2 gusting 6 25.9
2020-Aug-12 11:15 262 2 gusting 5 25.8
2020-Aug-12 11:10 259 1 gusting 3 25.7
2020-Aug-12 11:05 263 2 gusting 4 25.5
2020-Aug-12 11:00 259 2 gusting 4 25.4
2020-Aug-12 10:55 256 1 gusting 3 25.3
2020-Aug-12 10:50 265 2 gusting 3 25.2
2020-Aug-12 10:45 259 1 gusting 3 25.1
2020-Aug-12 10:40 263 1 gusting 4 25.0
2020-Aug-12 10:35 260 1 gusting 3 25.0
2020-Aug-12 10:30 257 1 gusting 3 24.9
2020-Aug-12 10:25 268 1 gusting 3 24.8
2020-Aug-12 10:20 277 0 gusting 3 24.8
2020-Aug-12 10:15 280 0 gusting 2 24.8
2020-Aug-12 10:10 279 0 gusting 2 24.8
2020-Aug-12 10:05 251 1 gusting 3 24.8
2020-Aug-12 10:00 256 0 gusting 3 24.7
2020-Aug-12 09:55 264 1 gusting 3 24.7
2020-Aug-12 09:50 257 1 gusting 2 24.7
2020-Aug-12 09:45 265 0 gusting 3 24.7
2020-Aug-12 09:40 263 1 gusting 3 24.6
2020-Aug-12 09:35 275 1 gusting 3 24.4
2020-Aug-12 09:30 141 0 gusting 2 24.1
2020-Aug-12 09:25 163 2 gusting 4 23.8
2020-Aug-12 09:20 162 2 gusting 4 23.9
2020-Aug-12 09:15 168 2 gusting 3 23.8
2020-Aug-12 09:10 173 3 gusting 4 23.7
2020-Aug-12 09:05 170 2 gusting 4 23.9
2020-Aug-12 09:00 164 1 gusting 4 25.2
2020-Aug-12 08:55 263 1 gusting 3 25.3
2020-Aug-12 08:50 278 0 gusting 2 25.3
2020-Aug-12 08:45 265 0 gusting 2 25.3
2020-Aug-12 08:40 266 0 gusting 2 25.3
2020-Aug-12 08:35 257 1 gusting 2 25.4
2020-Aug-12 08:30 267 1 gusting 4 25.4
2020-Aug-12 08:25 274 2 gusting 5 25.3
2020-Aug-12 08:20 262 2 gusting 5 25.3
2020-Aug-12 08:15 264 2 gusting 4 25.3
2020-Aug-12 08:10 256 2 gusting 4 25.2
2020-Aug-12 08:05 264 0 gusting 2 25.2
2020-Aug-12 08:00 259 1 gusting 3 25.3
2020-Aug-12 07:55 264 1 gusting 3 25.3
2020-Aug-12 07:50 260 2 gusting 4 25.3
2020-Aug-12 07:45 255 2 gusting 4 25.3
2020-Aug-12 07:40 266 1 gusting 4 25.4
2020-Aug-12 07:35 265 1 gusting 4 25.4
2020-Aug-12 07:30 266 1 gusting 4 25.4
2020-Aug-12 07:25 265 2 gusting 4 25.4
2020-Aug-12 07:20 273 1 gusting 4 25.4
2020-Aug-12 07:15 277 1 gusting 4 25.4
2020-Aug-12 07:10 272 1 gusting 3 25.4
2020-Aug-12 07:05 262 2 gusting 5 25.4
2020-Aug-12 07:00 269 1 gusting 4 25.4
2020-Aug-12 06:55 266 2 gusting 4 25.5
2020-Aug-12 06:50 273 2 gusting 4 25.5
2020-Aug-12 06:45 267 1 gusting 3 25.5
2020-Aug-12 06:40 275 1 gusting 4 25.5
2020-Aug-12 06:35 271 1 gusting 3 25.5
2020-Aug-12 06:30 265 1 gusting 4 25.6
2020-Aug-12 06:25 258 1 gusting 4 25.6
2020-Aug-12 06:20 262 1 gusting 3 25.6
2020-Aug-12 06:15 262 1 gusting 3 25.7
2020-Aug-12 06:10 272 1 gusting 4 25.7
2020-Aug-12 06:05 261 2 gusting 5 25.7
2020-Aug-12 06:00 260 1 gusting 4 25.7
2020-Aug-12 05:55 267 1 gusting 3 25.7
2020-Aug-12 05:50 275 1 gusting 3 25.8
2020-Aug-12 05:45 267 1 gusting 4 25.8
2020-Aug-12 05:40 273 1 gusting 2 25.8
2020-Aug-12 05:35 272 1 gusting 3 25.8
2020-Aug-12 05:30 273 2 gusting 4 25.9
2020-Aug-12 05:25 266 2 gusting 4 25.9
2020-Aug-12 05:20 271 1 gusting 4 25.9
2020-Aug-12 05:15 278 1 gusting 4 25.9
2020-Aug-12 05:10 260 2 gusting 5 25.9
2020-Aug-12 05:05 264 2 gusting 5 25.9
2020-Aug-12 05:00 269 1 gusting 4 25.9
2020-Aug-12 04:55 267 2 gusting 4 25.9
2020-Aug-12 04:50 273 2 gusting 6 26.0
2020-Aug-12 04:45 275 2 gusting 4 26.0
2020-Aug-12 04:40 275 2 gusting 5 26.0
2020-Aug-12 04:35 278 1 gusting 4 26.0
2020-Aug-12 04:30 259 2 gusting 4 26.1
2020-Aug-12 04:25 266 2 gusting 5 26.1
2020-Aug-12 04:20 268 2 gusting 5 26.1
2020-Aug-12 04:15 278 2 gusting 5 26.1
2020-Aug-12 04:10 264 3 gusting 6 26.1
2020-Aug-12 04:05 265 2 gusting 4 26.1
2020-Aug-12 04:00 265 3 gusting 5 26.1
2020-Aug-12 03:55 268 2 gusting 5 26.1
2020-Aug-12 03:50 281 2 gusting 5 26.1
2020-Aug-12 03:45 288 1 gusting 3 26.1
2020-Aug-12 03:40 263 1 gusting 4 26.1
2020-Aug-12 03:35 279 1 gusting 4 26.2
2020-Aug-12 03:30 284 2 gusting 4 26.2
2020-Aug-12 03:25 283 1 gusting 5 26.2
2020-Aug-12 03:20 315 1 gusting 4 26.2
2020-Aug-12 03:15 260 1 gusting 4 26.2
2020-Aug-12 03:10 328 1 gusting 3 26.3
2020-Aug-12 03:05 296 1 gusting 4 26.3
2020-Aug-12 03:00 288 2 gusting 5 26.3
2020-Aug-12 02:55 284 1 gusting 4 26.3
2020-Aug-12 02:50 307 1 gusting 5 26.3
2020-Aug-12 02:45 330 0 gusting 3 26.3
2020-Aug-12 02:40 338 1 gusting 3 26.3
2020-Aug-12 02:35 288 1 gusting 5 26.3
2020-Aug-12 02:30 277 0 gusting 4 26.3
2020-Aug-12 02:25 323 1 gusting 3 26.3
2020-Aug-12 02:20 313 1 gusting 4 26.2
2020-Aug-12 02:15 129 1 gusting 4 25.9
2020-Aug-12 02:10 089 1 gusting 5 26.5
2020-Aug-12 02:05 342 1 gusting 4 26.5
2020-Aug-12 02:00 331 1 gusting 4 26.5
2020-Aug-12 01:55 278 0 gusting 3 26.6
2020-Aug-12 01:50 284 1 gusting 2 26.6
2020-Aug-12 01:45 251 1 gusting 3 26.6
2020-Aug-12 01:40 293 1 gusting 3 26.6
2020-Aug-12 01:35 323 1 gusting 3 26.7
2020-Aug-12 01:30 313 1 gusting 3 26.7
2020-Aug-12 01:25 305 1 gusting 3 26.7
2020-Aug-12 01:20 312 1 gusting 2 26.7
2020-Aug-12 01:15 329 1 gusting 4 26.7
2020-Aug-12 01:10 295 0 gusting 2 26.7
2020-Aug-12 01:05 325 0 gusting 2 26.7
2020-Aug-12 01:00 319 1 gusting 4 26.7
2020-Aug-12 00:55 286 1 gusting 5 26.6
2020-Aug-12 00:50 347 1 gusting 4 26.5
2020-Aug-12 00:45 092 1 gusting 4 26.5
2020-Aug-12 00:40 309 1 gusting 4 26.2
2020-Aug-12 00:35 089 1 gusting 3 25.7
2020-Aug-12 00:30 112 1 gusting 4 25.2
2020-Aug-12 00:25 167 2 gusting 6 24.2
2020-Aug-12 00:20 166 4 gusting 7 24.3
2020-Aug-12 00:15 167 5 gusting 7 24.1
2020-Aug-12 00:10 167 6 gusting 8 24.2
2020-Aug-12 00:05 169 5 gusting 9 24.4
2020-Aug-12 00:00 170 5 gusting 9 24.1
2020-Aug-11 23:55 165 4 gusting 7 24.1
2020-Aug-11 23:50 168 5 gusting 8 24.3
2020-Aug-11 23:45 163 4 gusting 7 24.4
2020-Aug-11 23:40 168 6 gusting 9 24.3
2020-Aug-11 23:35 170 6 gusting 9 24.3
2020-Aug-11 23:30 168 6 gusting 10 24.4
2020-Aug-11 23:25 169 6 gusting 9 24.5
2020-Aug-11 23:20 169 5 gusting 8 24.7
2020-Aug-11 23:15 172 7 gusting 11 24.7
2020-Aug-11 23:10 168 7 gusting 10 25.0
2020-Aug-11 23:05 171 7 gusting 11 25.2
2020-Aug-11 23:00 167 7 gusting 12 25.2
2020-Aug-11 22:55 171 4 gusting 10 25.0
2020-Aug-11 22:50 168 6 gusting 12 25.0
2020-Aug-11 22:45 168 6 gusting 12 25.1
2020-Aug-11 22:40 170 4 gusting 13 25.1
2020-Aug-11 22:35 169 8 gusting 12 25.0
2020-Aug-11 22:30 171 9 gusting 12 25.2
2020-Aug-11 22:25 174 8 gusting 13 25.3
2020-Aug-11 22:20 172 9 gusting 14 25.3
2020-Aug-11 22:15 171 9 gusting 15 25.3
2020-Aug-11 22:10 175 11 gusting 15 25.4
2020-Aug-11 22:05 173 10 gusting 17 25.5
2020-Aug-11 22:00 171 8 gusting 15 25.6
2020-Aug-11 21:55 174 10 gusting 14 25.5
2020-Aug-11 21:50 171 9 gusting 15 25.5
2020-Aug-11 21:45 174 9 gusting 15 25.5
2020-Aug-11 21:40 174 10 gusting 16 25.6
2020-Aug-11 21:35 171 9 gusting 14 25.6
2020-Aug-11 21:30 172 8 gusting 15 25.5
2020-Aug-11 21:25 171 9 gusting 16 25.4
2020-Aug-11 21:20 171 9 gusting 14 25.4
2020-Aug-11 21:15 170 9 gusting 14 25.3
2020-Aug-11 21:10 171 8 gusting 12 25.0
2020-Aug-11 21:05 170 7 gusting 13 25.2
2020-Aug-11 21:00 167 7 gusting 15 25.2
2020-Aug-11 20:55 171 9 gusting 14 25.4
2020-Aug-11 20:50 167 8 gusting 13 25.6
2020-Aug-11 20:45 169 8 gusting 12 25.7
2020-Aug-11 20:40 166 7 gusting 12 25.7
2020-Aug-11 20:35 171 8 gusting 13 25.7
2020-Aug-11 20:30 168 8 gusting 12 25.6
2020-Aug-11 20:25 154 7 gusting 12 25.4
2020-Aug-11 20:20 144 5 gusting 8 25.3
2020-Aug-11 20:15 153 6 gusting 8 25.4
2020-Aug-11 20:10 157 7 gusting 10 25.6
2020-Aug-11 20:05 160 7 gusting 10 25.6
2020-Aug-11 20:00 159 7 gusting 10 25.7
2020-Aug-11 19:55 161 6 gusting 9 25.7
2020-Aug-11 19:50 160 6 gusting 10 25.4
2020-Aug-11 19:45 152 6 gusting 10 25.3
2020-Aug-11 19:40 151 6 gusting 9 25.3
2020-Aug-11 19:35 149 5 gusting 6 25.3
2020-Aug-11 19:30 148 4 gusting 6 25.2
2020-Aug-11 19:25 146 4 gusting 6 24.9
2020-Aug-11 19:20 153 4 gusting 5 24.7
2020-Aug-11 19:15 165 3 gusting 5 25.0
2020-Aug-11 19:10 165 3 gusting 6 25.0
2020-Aug-11 19:05 176 4 gusting 6 25.0
2020-Aug-11 19:00 168 5 gusting 7 25.3
2020-Aug-11 18:55 170 2 gusting 5 25.2
2020-Aug-11 18:50 303 0 gusting 1 24.9
2020-Aug-11 18:45 181 0 gusting 0 24.5
2020-Aug-11 18:40 189 1 gusting 6 24.4
2020-Aug-11 18:35 141 5 gusting 11 24.0
2020-Aug-11 18:30 149 5 gusting 8 23.4
2020-Aug-11 18:25 154 5 gusting 8 23.1
2020-Aug-11 18:20 236 1 gusting 5 22.5
2020-Aug-11 18:15 276 2 gusting 4 22.2
2020-Aug-11 18:10 157 5 gusting 10 22.3
2020-Aug-11 18:05 320 4 gusting 12 22.2
2020-Aug-11 18:00 277 4 gusting 7 22.6
2020-Aug-11 17:55 301 5 gusting 11 23.7
2020-Aug-11 17:50 297 4 gusting 10 25.4
2020-Aug-11 17:45 331 3 gusting 6 26.5
2020-Aug-11 17:40 185 6 gusting 12 27.1
2020-Aug-11 17:35 161 9 gusting 14 26.9
2020-Aug-11 17:30 158 9 gusting 14 26.3
2020-Aug-11 17:25 156 9 gusting 12 26.1
2020-Aug-11 17:20 161 9 gusting 15 26.5
2020-Aug-11 17:15 167 9 gusting 13 26.4
2020-Aug-11 17:10 155 7 gusting 11 25.9
2020-Aug-11 17:05 158 8 gusting 12 25.8
2020-Aug-11 17:00 158 6 gusting 10 25.4
2020-Aug-11 16:55 162 6 gusting 10 25.5
2020-Aug-11 16:50 165 6 gusting 9 25.5
2020-Aug-11 16:45 163 7 gusting 11 25.8
2020-Aug-11 16:40 161 7 gusting 10 25.8
2020-Aug-11 16:35 160 7 gusting 12 25.6
2020-Aug-11 16:30 157 6 gusting 9 25.4
2020-Aug-11 16:25 163 6 gusting 10 25.4
2020-Aug-11 16:20 155 5 gusting 8 25.5
2020-Aug-11 16:15 155 5 gusting 7 25.8
2020-Aug-11 16:10 152 6 gusting 10 26.3
2020-Aug-11 16:05 154 8 gusting 10 26.4
2020-Aug-11 16:00 149 6 gusting 9 26.5
2020-Aug-11 15:55 149 6 gusting 8 26.2
2020-Aug-11 15:50 152 6 gusting 8 26.0
2020-Aug-11 15:45 153 5 gusting 8 25.6
2020-Aug-11 15:40 155 6 gusting 9 25.8
2020-Aug-11 15:35 153 5 gusting 8 26.5
2020-Aug-11 15:30 155 5 gusting 7 26.3
2020-Aug-11 15:25 147 5 gusting 7 25.9
2020-Aug-11 15:20 146 4 gusting 6 26.0
2020-Aug-11 15:15 144 4 gusting 6 26.2
2020-Aug-11 15:10 148 4 gusting 6 25.8
2020-Aug-11 15:05 148 4 gusting 8 25.6
2020-Aug-11 15:00 151 5 gusting 7 25.5
2020-Aug-11 14:55 146 4 gusting 7 25.5
2020-Aug-11 14:50 149 5 gusting 7 25.5
2020-Aug-11 14:45 152 6 gusting 7 25.7
2020-Aug-11 14:40 154 6 gusting 9 25.7
2020-Aug-11 14:35 155 6 gusting 9 25.7
2020-Aug-11 14:30 154 6 gusting 8 25.6
2020-Aug-11 14:25 152 5 gusting 7 25.3
2020-Aug-11 14:20 152 5 gusting 7 25.4
2020-Aug-11 14:15 154 5 gusting 8 25.4
2020-Aug-11 14:10 155 5 gusting 7 25.4
2020-Aug-11 14:05 156 5 gusting 7 25.2
2020-Aug-11 14:00 150 5 gusting 6 25.3
2020-Aug-11 13:55 154 4 gusting 5 25.4
2020-Aug-11 13:50 154 4 gusting 6 25.4
2020-Aug-11 13:45 153 4 gusting 5 25.4
2020-Aug-11 13:40 154 4 gusting 6 25.4
2020-Aug-11 13:35 150 4 gusting 5 25.4
2020-Aug-11 13:30 154 4 gusting 6 25.3
2020-Aug-11 13:25 152 4 gusting 6 25.2
2020-Aug-11 13:20 144 3 gusting 7 25.4
2020-Aug-11 13:15 150 4 gusting 5 25.2
2020-Aug-11 13:10 157 4 gusting 5 25.2
2020-Aug-11 13:05 145 2 gusting 5 25.0
2020-Aug-11 13:00 135 3 gusting 4 25.0
2020-Aug-11 12:55 125 3 gusting 4 25.7
2020-Aug-11 12:50 208 1 gusting 4 26.9
2020-Aug-11 12:45 265 1 gusting 3 26.8
2020-Aug-11 12:40 287 1 gusting 4 26.8
2020-Aug-11 12:35 271 1 gusting 4 26.8
2020-Aug-11 12:30 247 1 gusting 4 26.4
2020-Aug-11 12:25 260 1 gusting 4 26.2
2020-Aug-11 12:20 247 1 gusting 3 25.8
2020-Aug-11 12:15 254 1 gusting 4 25.2
2020-Aug-11 12:10 151 0 gusting 3 23.7
2020-Aug-11 12:05 140 2 gusting 3 23.4
2020-Aug-11 12:00 155 3 gusting 4 23.4
2020-Aug-11 11:55 152 3 gusting 5 23.6
2020-Aug-11 11:50 156 3 gusting 5 23.8
2020-Aug-11 11:45 158 3 gusting 4 23.9
2020-Aug-11 11:40 154 2 gusting 4 24.1
2020-Aug-11 11:35 165 2 gusting 4 24.5
2020-Aug-11 11:30 130 1 gusting 4 25.4
2020-Aug-11 11:25 258 1 gusting 3 25.1
2020-Aug-11 11:20 136 1 gusting 2 25.0
2020-Aug-11 11:15 287 1 gusting 4 24.9
2020-Aug-11 11:10 229 1 gusting 3 24.8
2020-Aug-11 11:05 281 1 gusting 5 24.9
2020-Aug-11 11:00 276 1 gusting 4 24.9
2020-Aug-11 10:55 269 1 gusting 4 24.9
2020-Aug-11 10:50 278 1 gusting 3 24.7
2020-Aug-11 10:45 282 1 gusting 4 24.5
2020-Aug-11 10:40 075 0 gusting 4 24.0
2020-Aug-11 10:35 159 2 gusting 5 23.5
2020-Aug-11 10:30 168 4 gusting 5 23.2
2020-Aug-11 10:25 166 3 gusting 6 23.5
2020-Aug-11 10:20 142 1 gusting 3 24.5
2020-Aug-11 10:15 357 1 gusting 3 24.6
2020-Aug-11 10:10 023 1 gusting 4 24.6
2020-Aug-11 10:05 335 0 gusting 3 24.6
2020-Aug-11 10:00 275 1 gusting 4 24.5
2020-Aug-11 09:55 280 1 gusting 3 24.5
2020-Aug-11 09:50 269 2 gusting 4 24.5
2020-Aug-11 09:45 270 2 gusting 4 24.4
2020-Aug-11 09:40 281 2 gusting 5 24.4
2020-Aug-11 09:35 276 1 gusting 4 24.2
2020-Aug-11 09:30 295 1 gusting 3 24.3
2020-Aug-11 09:25 135 0 gusting 2 24.0
2020-Aug-11 09:20 047 0 gusting 3 24.2
2020-Aug-11 09:15 335 0 gusting 2 24.1
2020-Aug-11 09:10 174 0 gusting 2 23.9
2020-Aug-11 09:05 150 1 gusting 3 23.2
2020-Aug-11 09:00 166 3 gusting 5 22.9
2020-Aug-11 08:55 164 3 gusting 5 22.9
2020-Aug-11 08:50 165 3 gusting 4 22.9
2020-Aug-11 08:45 165 3 gusting 5 22.7
2020-Aug-11 08:40 164 3 gusting 5 22.7
2020-Aug-11 08:35 163 2 gusting 4 22.8
2020-Aug-11 08:30 165 2 gusting 4 22.7
2020-Aug-11 08:25 160 2 gusting 4 22.7
2020-Aug-11 08:20 155 2 gusting 4 22.9
2020-Aug-11 08:15 164 2 gusting 3 22.8
2020-Aug-11 08:10 162 2 gusting 3 22.8
2020-Aug-11 08:05 153 1 gusting 3 22.9
2020-Aug-11 08:00 169 2 gusting 3 22.8
2020-Aug-11 07:55 167 3 gusting 5 22.6
2020-Aug-11 07:50 164 3 gusting 4 22.6
2020-Aug-11 07:45 168 3 gusting 4 22.6
2020-Aug-11 07:40 169 3 gusting 5 22.5
2020-Aug-11 07:35 171 4 gusting 5 22.5
2020-Aug-11 07:30 164 2 gusting 5 22.5
2020-Aug-11 07:25 164 2 gusting 5 22.5
2020-Aug-11 07:20 160 2 gusting 4 22.6
2020-Aug-11 07:15 163 3 gusting 5 22.7
2020-Aug-11 07:10 169 4 gusting 6 22.6
2020-Aug-11 07:05 168 3 gusting 5 22.6
2020-Aug-11 07:00 165 2 gusting 4 22.6
2020-Aug-11 06:55 164 2 gusting 3 22.6
2020-Aug-11 06:50 165 3 gusting 4 22.7
2020-Aug-11 06:45 168 3 gusting 5 22.7
2020-Aug-11 06:40 165 3 gusting 4 22.8
2020-Aug-11 06:35 162 2 gusting 4 23.0
2020-Aug-11 06:30 165 2 gusting 4 23.3
2020-Aug-11 06:25 165 3 gusting 5 23.1
2020-Aug-11 06:20 168 3 gusting 4 22.9
2020-Aug-11 06:15 167 3 gusting 5 22.7
2020-Aug-11 06:10 168 2 gusting 4 22.7
2020-Aug-11 06:05 164 3 gusting 5 22.8
2020-Aug-11 06:00 166 3 gusting 5 22.9
2020-Aug-11 05:55 157 2 gusting 4 23.2
2020-Aug-11 05:50 161 1 gusting 2 23.1
2020-Aug-11 05:45 142 1 gusting 4 23.2
2020-Aug-11 05:40 160 2 gusting 3 22.7
2020-Aug-11 05:35 148 1 gusting 2 22.8
2020-Aug-11 05:30 156 2 gusting 2 22.8
2020-Aug-11 05:25 160 2 gusting 3 22.8
2020-Aug-11 05:20 166 2 gusting 3 22.8
2020-Aug-11 05:15 163 1 gusting 3 22.9
2020-Aug-11 05:10 165 2 gusting 4 23.0
2020-Aug-11 05:05 164 3 gusting 4 23.0
2020-Aug-11 05:00 156 2 gusting 4 23.2
2020-Aug-11 04:55 165 2 gusting 3 23.3
2020-Aug-11 04:50 167 3 gusting 4 23.3
2020-Aug-11 04:45 167 3 gusting 5 23.4
2020-Aug-11 04:40 156 1 gusting 4 23.6
2020-Aug-11 04:35 165 2 gusting 5 23.4
2020-Aug-11 04:30 170 4 gusting 5 23.3
2020-Aug-11 04:25 165 3 gusting 5 23.3
2020-Aug-11 04:20 166 3 gusting 5 23.3
2020-Aug-11 04:15 168 3 gusting 5 23.5
2020-Aug-11 04:10 168 3 gusting 5 23.7
2020-Aug-11 04:05 165 3 gusting 6 24.2
2020-Aug-11 04:00 137 1 gusting 4 24.9
2020-Aug-11 03:55 342 1 gusting 3 25.1
2020-Aug-11 03:50 302 1 gusting 3 25.1
2020-Aug-11 03:45 306 1 gusting 3 25.1
2020-Aug-11 03:40 039 0 gusting 2 25.1
2020-Aug-11 03:35 300 1 gusting 3 25.1
2020-Aug-11 03:30 288 1 gusting 3 25.2
2020-Aug-11 03:25 255 0 gusting 3 25.2
2020-Aug-11 03:20 282 0 gusting 3 25.2
2020-Aug-11 03:15 308 0 gusting 2 25.2
2020-Aug-11 03:10 295 1 gusting 3 25.2
2020-Aug-11 03:05 280 1 gusting 3 25.3
2020-Aug-11 03:00 292 1 gusting 4 25.3
2020-Aug-11 02:55 278 1 gusting 4 25.3
2020-Aug-11 02:50 269 2 gusting 4 25.3
2020-Aug-11 02:45 275 2 gusting 5 25.3
2020-Aug-11 02:40 278 1 gusting 4 25.3
2020-Aug-11 02:35 240 1 gusting 5 25.3
2020-Aug-11 02:30 309 0 gusting 4 25.2
2020-Aug-11 02:25 317 1 gusting 5 25.1
2020-Aug-11 02:20 358 1 gusting 3 25.0
2020-Aug-11 02:15 326 1 gusting 7 24.7
2020-Aug-11 02:10 088 0 gusting 2 24.5
2020-Aug-11 02:05 235 1 gusting 3 24.3
2020-Aug-11 02:00 152 1 gusting 4 23.8
2020-Aug-11 01:55 168 3 gusting 6 23.7
2020-Aug-11 01:50 155 2 gusting 6 23.8
2020-Aug-11 01:45 144 3 gusting 7 23.6
2020-Aug-11 01:40 171 5 gusting 8 23.6
2020-Aug-11 01:35 165 5 gusting 8 23.6
2020-Aug-11 01:30 169 4 gusting 9 23.6
2020-Aug-11 01:25 168 5 gusting 9 23.5
2020-Aug-11 01:20 175 3 gusting 7 23.7
2020-Aug-11 01:15 168 5 gusting 8 23.6
2020-Aug-11 01:10 167 5 gusting 8 23.7
2020-Aug-11 01:05 170 5 gusting 8 23.7
2020-Aug-11 01:00 170 6 gusting 9 23.8
2020-Aug-11 00:55 172 6 gusting 9 23.9
2020-Aug-11 00:50 168 6 gusting 8 24.1
2020-Aug-11 00:45 165 5 gusting 8 24.3
2020-Aug-11 00:40 164 4 gusting 8 24.2
2020-Aug-11 00:35 152 2 gusting 6 24.2
2020-Aug-11 00:30 171 3 gusting 8 24.0
2020-Aug-11 00:25 172 7 gusting 10 23.9
2020-Aug-11 00:20 168 7 gusting 9 24.0
2020-Aug-11 00:15 168 6 gusting 8 24.2
2020-Aug-11 00:10 168 5 gusting 8 24.2
2020-Aug-11 00:05 170 7 gusting 10 24.2
2020-Aug-11 00:00 167 6 gusting 8 24.3
2020-Aug-10 23:55 171 6 gusting 11 24.1
2020-Aug-10 23:50 169 8 gusting 11 24.2
2020-Aug-10 23:45 169 7 gusting 10 24.2
2020-Aug-10 23:40 170 7 gusting 11 24.4
2020-Aug-10 23:35 166 6 gusting 12 24.6
2020-Aug-10 23:30 165 4 gusting 12 24.5
2020-Aug-10 23:25 166 6 gusting 12 24.6
2020-Aug-10 23:20 165 6 gusting 10 24.6
2020-Aug-10 23:15 168 6 gusting 11 24.6
2020-Aug-10 23:10 172 8 gusting 12 24.6
2020-Aug-10 23:05 173 9 gusting 13 24.6
2020-Aug-10 23:00 169 7 gusting 11 24.8
2020-Aug-10 22:55 169 7 gusting 11 24.9
2020-Aug-10 22:50 168 8 gusting 13 24.8
2020-Aug-10 22:45 170 8 gusting 12 24.7
2020-Aug-10 22:40 165 7 gusting 10 25.0
2020-Aug-10 22:35 169 7 gusting 11 25.1
2020-Aug-10 22:30 166 6 gusting 10 25.1
2020-Aug-10 22:25 168 7 gusting 11 25.2
2020-Aug-10 22:20 166 6 gusting 9 25.2
2020-Aug-10 22:15 166 6 gusting 10 25.3
2020-Aug-10 22:10 163 7 gusting 11 25.4
2020-Aug-10 22:05 163 6 gusting 12 25.6
2020-Aug-10 22:00 163 7 gusting 11 25.6